Portada
METAR-TAF:

METAR-TAF

Aeroports :

Oxford, Anglaterra

latitud: 51-50-13N, longitud: 1-19-12W, altitud: 82 m

Observació

L'informe es va fer fa 24 minuts, a les 16:50 UTC
Vent 10 kt del Sud-Oest
Temperatura 22°C
Humitat 53%
Pressió 1012 hPa
Visibilitat 10 km o més
Escasses núvols a una alçada de 3000 ft

METAR: EGTK 171650Z 23010KT 9999 FEW030 22/12 Q1012

Hora: 18:14 (17:14 UTC)

Pronòstic

L'informe es va fer fa 3 hores i 15 minuts, a les 13:59 UTC
Pronòstic vàlid del 17 a les 15 UTC al 17 a les 22 UTC
Vent 8 kt del Oest/Sud-Oest
Visibilitat 10 km o més
Escasses núvols a una alçada de 4000 ft
Probabilitat 30% :
Temporalment
l' 17 a les 18 UTC al 17 a les 22 UTC
Visibilitat: 8000 m
xàfecs de pluja

TAF: EGTK 171359Z 1715/1722 24008KT 9999 FEW040 PROB30 TEMPO 1718/1722 8000 SHRA

Observacions i pronòstics meteorològics de més de 4000 aeroports (METAR i TAF).

Les estacions disponibles són els punts grocs i vermells al mapa.

Posi el ratolí al punt desitjat per veure el nom de l'estació.

Feu clic per veure les observacions i els pronòstics meteorològics.

Per canviar el mapa: feu clic els botons verds amb una creu de color negre per apropar; al botó verd amb un guió per allunyar la imatge; o en les fletxes verdes per a mapes adjacents.


METAR-TAF: